METAR AND TAF INFORMATION
METAR FOR LEBB
ADDS - METARS form results

(0911 UTC 16 December 2017)
Data provider http://aviationweather.gov/adds/metars/
 
METAR text: LEBB 160900Z VRB03KT 9000 -RA SCT020 FEW030TCU BKN035 BKN045 07/06 Q1022 TEMPO 3000 -RA
Conditions at: LEBB (BILBAO/SONDICA , ES) observed 0900 UTC 16 December 2017
Temperature: 7.0°C (45°F)
Dewpoint: 6.0°C (43°F) [RH = 93%]
Pressure (altimeter): 30.18 inches Hg (1022.0 mb)
Winds: variable direction winds at 3 MPH (3 knots; 1.6 m/s)
Visibility: 6 miles (9 km)
Ceiling: 3500 feet AGL
Clouds: scattered clouds at 2000 feet AGL
few clouds at 3000 feet AGL
broken clouds at 3500 feet AGL
broken clouds at 4500 feet AGL
Weather: -RA  (light rain)

METAR text: LEBB 160830Z 28003KT 230V030 9000 SCT030 FEW035TCU BKN040 BKN060 07/06 Q1021 RETS TEMPO 3000 -RA
Conditions at: LEBB (BILBAO/SONDICA , ES) observed 0830 UTC 16 December 2017
Temperature: 7.0°C (45°F)
Dewpoint: 6.0°C (43°F) [RH = 93%]
Pressure (altimeter): 30.15 inches Hg (1021.0 mb)
Winds: from the W (280 degrees) at 3 MPH (3 knots; 1.6 m/s)
Visibility: 6 miles (9 km)
Ceiling: 4000 feet AGL
Clouds: scattered clouds at 3000 feet AGL
few clouds at 3500 feet AGL
broken clouds at 4000 feet AGL
broken clouds at 6000 feet AGL
Weather: no significant weather observed at this time

METAR text: LEBB 160813Z 34006KT 320V020 9000 -RA SCT030 FEW035TCU BKN040 BKN060 08/05 Q1021 RETS TEMPO 3000 -RA
Conditions at: LEBB (BILBAO/SONDICA , ES) observed 0813 UTC 16 December 2017
Temperature: 8.0°C (46°F)
Dewpoint: 5.0°C (41°F) [RH = 81%]
Pressure (altimeter): 30.15 inches Hg (1021.0 mb)
Winds: from the NNW (340 degrees) at 7 MPH (6 knots; 3.1 m/s)
Visibility: 6 miles (9 km)
Ceiling: 4000 feet AGL
Clouds: scattered clouds at 3000 feet AGL
few clouds at 3500 feet AGL
broken clouds at 4000 feet AGL
broken clouds at 6000 feet AGL
Weather: -RA  (light rain)

Forecast for: LEBB (BILBAO/SONDICA , ES)
Text: TAF AMD LEBB 160807Z 1608/1706 32010KT 9999 SCT030 SCT050 TX10/1614Z TN04/1706Z
Forecast period: 0800 UTC 16 December 2017 to 0600 UTC 17 December 2017
Forecast type: FROM: standard forecast or significant change
Winds: from the NW (320 degrees) at 12 MPH (10 knots; 5.2 m/s)
Visibility: 6 or more miles (10+ km)
Clouds: scattered clouds at 3000 feet AGL
scattered clouds at 5000 feet AGL
Weather: no significant weather forecast for this period
Text: TEMPO 1608/1624 RA
Forecast period: 0800 UTC 16 December 2017 to 0000 UTC 17 December 2017
Forecast type: TEMPORARY: The following changes expected for less than half the time period
Weather: RA  (rain)
Text: PROB40
Forecast period: 0000 to 0600 UTC 17 December 2017
Forecast type: TEMPORARY: The following changes expected for less than half the time period
Weather: RA  (rain)
Text: TEMPO 1700/1706 RA
Forecast period: 0800 to 1200 UTC 16 December 2017
Forecast type: TEMPORARY: The following changes expected for less than half the time period
Visibility: 1.86 miles (2.99 km)
Clouds: scattered clouds at 3000 feet AGL
Weather: SHRA  (rain showers)
Text: TEMPO 1608/1612 3000 SHRA SCT030TCU
Forecast period: 0800 to 1200 UTC 16 December 2017
Forecast type: TEMPORARY: The following changes expected for less than half the time period
Clouds: scattered clouds at 3000 feet AGL
Weather: TS SHGR  (thunderstorm, hail showers)

 AIRPORT MAP

 RUNWAY INFORMATION
Runway 10 Runway length 6562 ft Runway width 148 ft
Runway elevation 116 ft Runway displaced threshold 0 ft Runway heading 97
Runway 28 Runway length 6562 ft Runway width 148 ft
Runway elevation 129 ft Runway displaced threshold 0 ft Runway heading 277
Runway 12 Runway length 8530 ft Runway width 148 ft
Runway elevation 119 ft Runway displaced threshold 0 ft Runway heading 117
Runway 30 Runway length 8530 ft Runway width 148 ft
Runway elevation 128 ft Runway displaced threshold 1509 ft Runway heading 297

 AIRPORT FREQUENCIES
Type APP Name APP Frequency 120.7 MHZ
Type ATIS Name ATIS Frequency 118.825 MHZ
Type GND Name GND Frequency 121.7 MHZ
Type TWR Name TWR Frequency 118.5 MHZ

 AIRPORT NEAR NAVIGATION AIDS
Type VOR-DME Name Bilbao Frequency 115900 KHZ



Powered by Virtual Airlines Manager [v2.6.2]